Time;durP1;ratioP1;P1;durP2;ratioP2;P2;SDS_P1;SDS_P2;PMS_P1;PMS_P2;Temp;Humidity;BMP_temperature;BMP_pressure;BME280_temperature;BME280_humidity;BME280_pressure;Samples;Min_cycle;Max_cycle;Signal;HPM_P1;HPM_P2
2023/03/04 00:01:47;;;;;;;25.27;16.65;;;;;;;;;;6242526;28;20337;-67
2023/03/04 00:04:48;;;;;;;26.83;17.30;;;;;;;;;;6246920;28;20107;-68
2023/03/04 00:07:50;;;;;;;32.28;18.58;;;;;;;;;;6248730;28;20061;-68
2023/03/04 00:10:51;;;;;;;29.15;18.67;;;;;;;;;;6248745;28;20107;-67
2023/03/04 00:13:53;;;;;;;27.55;16.95;;;;;;;;;;6251787;28;20049;-69
2023/03/04 00:16:56;;;;;;;27.92;17.35;;;;;;;;;;6248475;28;20057;-68
2023/03/04 00:19:57;;;;;;;26.02;17.00;;;;;;;;;;6245663;28;20149;-68
2023/03/04 00:22:59;;;;;;;26.33;17.55;;;;;;;;;;6249430;28;20091;-68
2023/03/04 00:26:01;;;;;;;26.60;17.50;;;;;;;;;;6239666;28;20058;-68
2023/03/04 00:29:02;;;;;;;28.85;18.60;;;;;;;;;;6239633;28;20053;-68
2023/03/04 00:32:06;;;;;;;25.48;16.52;;;;;;;;;;6246526;28;20057;-68
2023/03/04 00:35:08;;;;;;;28.47;18.27;;;;;;;;;;6244103;28;20099;-67
2023/03/04 00:38:10;;;;;;;25.83;17.63;;;;;;;;;;6241885;28;20203;-68
2023/03/04 00:41:11;;;;;;;27.20;17.58;;;;;;;;;;6245771;28;20072;-68
2023/03/04 00:44:13;;;;;;;28.25;17.55;;;;;;;;;;6248851;28;20053;-69
2023/03/04 00:47:16;;;;;;;36.45;18.30;;;;;;;;;;6245348;28;20053;-69
2023/03/04 00:50:17;;;;;;;26.55;16.88;;;;;;;;;;6245943;28;20084;-69
2023/03/04 00:53:19;;;;;;;27.92;17.95;;;;;;;;;;6246884;28;20112;-67
2023/03/04 00:56:21;;;;;;;31.20;18.40;;;;;;;;;;6245781;28;20064;-68
2023/03/04 00:59:22;;;;;;;29.70;18.05;;;;;;;;;;6246434;28;21044;-69
2023/03/04 01:02:25;;;;;;;28.25;16.90;;;;;;;;;;6244111;28;20057;-69
2023/03/04 01:05:27;;;;;;;28.00;17.33;;;;;;;;;;6226725;28;20058;-68
2023/03/04 01:08:29;;;;;;;31.33;18.13;;;;;;;;;;6220486;28;20053;-69
2023/03/04 01:11:30;;;;;;;26.58;16.67;;;;;;;;;;6236887;28;20054;-68
2023/03/04 01:14:32;;;;;;;25.73;17.48;;;;;;;;;;6226305;28;20061;-68
2023/03/04 01:17:35;;;;;;;28.80;17.17;;;;;;;;;;6241467;28;20057;-69
2023/03/04 01:20:37;;;;;;;27.23;17.08;;;;;;;;;;6245937;28;20071;-69
2023/03/04 01:23:38;;;;;;;29.30;17.27;;;;;;;;;;6247926;28;20054;-69
2023/03/04 01:26:40;;;;;;;27.52;17.38;;;;;;;;;;6246977;28;20064;-67
2023/03/04 01:29:42;;;;;;;30.42;18.20;;;;;;;;;;6239076;28;20325;-67
2023/03/04 01:32:45;;;;;;;30.52;17.38;;;;;;;;;;6247288;28;20104;-67
2023/03/04 01:35:47;;;;;;;27.35;18.98;;;;;;;;;;6245173;28;20297;-68
2023/03/04 01:38:48;;;;;;;28.85;17.55;;;;;;;;;;6244899;28;20057;-68
2023/03/04 01:41:50;;;;;;;30.33;18.30;;;;;;;;;;6244377;28;20091;-68
2023/03/04 01:44:52;;;;;;;28.90;18.02;;;;;;;;;;6244720;28;20053;-69
2023/03/04 01:47:55;;;;;;;30.27;18.30;;;;;;;;;;6241374;28;20047;-68
2023/03/04 01:50:58;;;;;;;29.63;17.63;;;;;;;;;;6246167;28;20272;-68
2023/03/04 01:53:59;;;;;;;27.70;17.38;;;;;;;;;;6245407;28;20121;-68
2023/03/04 01:57:01;;;;;;;28.17;17.67;;;;;;;;;;6247129;28;20222;-69
2023/03/04 02:00:19;;;;;;;28.08;18.90;;;;;;;;;;6242853;28;20053;-68
2023/03/04 02:03:22;;;;;;;34.65;18.95;;;;;;;;;;6246623;28;20053;-68
2023/03/04 02:06:23;;;;;;;31.30;19.00;;;;;;;;;;6246450;28;20345;-68
2023/03/04 02:09:25;;;;;;;30.85;19.25;;;;;;;;;;6221672;28;20120;-69
2023/03/04 02:12:27;;;;;;;29.98;19.45;;;;;;;;;;6231077;28;20053;-67
2023/03/04 02:15:29;;;;;;;33.40;18.30;;;;;;;;;;6247364;28;20133;-69
2023/03/04 02:18:32;;;;;;;34.25;19.15;;;;;;;;;;6246559;28;20045;-69
2023/03/04 02:21:34;;;;;;;34.38;19.65;;;;;;;;;;6252266;28;20156;-68
2023/03/04 02:24:39;;;;;;;30.65;19.88;;;;;;;;;;6245542;28;20058;-68
2023/03/04 02:27:42;;;;;;;34.10;18.88;;;;;;;;;;6249894;28;20049;-68
2023/03/04 02:30:44;;;;;;;31.02;19.52;;;;;;;;;;6248386;28;20061;-68
2023/03/04 02:33:45;;;;;;;38.95;19.38;;;;;;;;;;6249542;28;20053;-68
2023/03/04 02:36:48;;;;;;;33.67;18.85;;;;;;;;;;6248009;28;20045;-68
2023/03/04 02:39:50;;;;;;;29.48;18.13;;;;;;;;;;6249749;28;20114;-68
2023/03/04 02:42:53;;;;;;;30.27;18.80;;;;;;;;;;6248468;28;20057;-68
2023/03/04 02:45:55;;;;;;;27.98;18.90;;;;;;;;;;6250285;28;20284;-68
2023/03/04 02:48:56;;;;;;;30.95;18.38;;;;;;;;;;6249291;28;20046;-68
2023/03/04 02:52:03;;;;;;;35.63;19.15;;;;;;;;;;6246637;28;20104;-69
2023/03/04 02:55:05;;;;;;;31.33;18.85;;;;;;;;;;6244040;28;20054;-68
2023/03/04 02:58:09;;;;;;;29.63;18.20;;;;;;;;;;6218232;28;20099;-69
2023/03/04 03:01:10;;;;;;;28.93;19.47;;;;;;;;;;6223399;28;20333;-69
2023/03/04 03:04:12;;;;;;;29.73;19.38;;;;;;;;;;6225332;28;20049;-70
2023/03/04 03:07:14;;;;;;;33.50;19.13;;;;;;;;;;6224440;28;20058;-69
2023/03/04 03:10:16;;;;;;;31.38;19.13;;;;;;;;;;6219057;28;20392;-69
2023/03/04 03:13:19;;;;;;;32.28;19.75;;;;;;;;;;6223521;28;20057;-68
2023/03/04 03:16:20;;;;;;;33.60;19.10;;;;;;;;;;6223815;28;20050;-68
2023/03/04 03:19:22;;;;;;;37.40;19.95;;;;;;;;;;6229229;28;20096;-67
2023/03/04 03:22:24;;;;;;;31.45;19.65;;;;;;;;;;6248460;28;20042;-68
2023/03/04 03:25:25;;;;;;;32.83;19.42;;;;;;;;;;6252465;28;20076;-68
2023/03/04 03:28:28;;;;;;;35.63;21.55;;;;;;;;;;6249226;28;20095;-68
2023/03/04 03:31:30;;;;;;;31.10;18.85;;;;;;;;;;6251518;28;20064;-68
2023/03/04 03:34:32;;;;;;;34.10;20.83;;;;;;;;;;6253589;28;20037;-67
2023/03/04 03:37:33;;;;;;;30.92;20.08;;;;;;;;;;6253524;28;20041;-68
2023/03/04 03:40:35;;;;;;;30.63;19.63;;;;;;;;;;6253418;28;20163;-68
2023/03/04 03:43:38;;;;;;;34.33;19.65;;;;;;;;;;6246643;28;20322;-68
2023/03/04 03:46:40;;;;;;;35.78;20.83;;;;;;;;;;6256530;28;20065;-69
2023/03/04 03:49:41;;;;;;;37.47;20.98;;;;;;;;;;6245846;28;20064;-67
2023/03/04 03:52:43;;;;;;;33.90;21.65;;;;;;;;;;6251720;28;20053;-68
2023/03/04 03:55:44;;;;;;;37.22;21.33;;;;;;;;;;6252423;28;20058;-68
2023/03/04 03:58:47;;;;;;;35.25;20.08;;;;;;;;;;6253588;28;20057;-69
2023/03/04 04:01:49;;;;;;;33.60;20.95;;;;;;;;;;6252137;28;20057;-68
2023/03/04 04:04:51;;;;;;;35.92;20.25;;;;;;;;;;6254112;28;20049;-68
2023/03/04 04:07:52;;;;;;;34.83;20.63;;;;;;;;;;6254183;28;20396;-68
2023/03/04 04:10:54;;;;;;;33.90;20.17;;;;;;;;;;6251520;28;20282;-69
2023/03/04 04:13:57;;;;;;;38.80;21.42;;;;;;;;;;6254442;28;20103;-67
2023/03/04 04:16:59;;;;;;;35.55;21.08;;;;;;;;;;6250805;28;20054;-67
2023/03/04 04:20:00;;;;;;;35.08;20.70;;;;;;;;;;6239751;28;20049;-67
2023/03/04 04:23:02;;;;;;;34.95;20.15;;;;;;;;;;6223908;28;20108;-68
2023/03/04 04:26:04;;;;;;;35.67;20.33;;;;;;;;;;6224302;28;20049;-68
2023/03/04 04:29:07;;;;;;;32.38;19.25;;;;;;;;;;6220874;28;20247;-68
2023/03/04 04:32:11;;;;;;;34.50;20.23;;;;;;;;;;6231510;28;20038;-67
2023/03/04 04:35:13;;;;;;;;;;;;;;;;;;6250014;28;20487;-68
2023/03/04 04:38:15;;;;;;;34.88;20.23;;;;;;;;;;6246003;28;19917;-67
2023/03/04 04:41:20;;;;;;;33.90;20.17;;;;;;;;;;6245719;28;20053;-68
2023/03/04 04:44:23;;;;;;;35.20;20.60;;;;;;;;;;6245589;28;20049;-67
2023/03/04 04:47:25;;;;;;;36.28;20.90;;;;;;;;;;6245507;28;20568;-68
2023/03/04 04:50:27;;;;;;;32.08;19.80;;;;;;;;;;6247522;28;20180;-68
2023/03/04 04:53:28;;;;;;;35.47;19.85;;;;;;;;;;6252539;28;20123;-67
2023/03/04 04:56:30;;;;;;;36.63;20.27;;;;;;;;;;6242978;28;20061;-67
2023/03/04 04:59:33;;;;;;;34.65;20.70;;;;;;;;;;6247908;28;20045;-67
2023/03/04 05:02:36;;;;;;;30.98;19.67;;;;;;;;;;6248154;28;20053;-67
2023/03/04 05:05:37;;;;;;;37.03;20.55;;;;;;;;;;6245215;28;20321;-67
2023/03/04 05:08:39;;;;;;;37.63;20.85;;;;;;;;;;6245838;28;20057;-68
2023/03/04 05:11:41;;;;;;;35.00;20.23;;;;;;;;;;6247931;28;20061;-67
2023/03/04 05:14:44;;;;;;;35.28;21.02;;;;;;;;;;6248619;28;20049;-68
2023/03/04 05:17:45;;;;;;;35.13;21.63;;;;;;;;;;6246294;28;20060;-67
2023/03/04 05:20:51;;;;;;;36.33;20.55;;;;;;;;;;6245140;28;20079;-68
2023/03/04 05:23:52;;;;;;;32.00;20.10;;;;;;;;;;6245928;28;20054;-68
2023/03/04 05:26:54;;;;;;;38.13;19.95;;;;;;;;;;6246068;28;20049;-67
2023/03/04 05:29:59;;;;;;;35.60;20.73;;;;;;;;;;6246805;28;20045;-67
2023/03/04 05:33:01;;;;;;;43.92;22.35;;;;;;;;;;6245010;28;20072;-68
2023/03/04 05:36:03;;;;;;;41.15;21.38;;;;;;;;;;6241510;28;20241;-68
2023/03/04 05:39:05;;;;;;;33.97;18.95;;;;;;;;;;6247096;28;20053;-68
2023/03/04 05:42:06;;;;;;;35.78;21.00;;;;;;;;;;6243697;28;20072;-67
2023/03/04 05:45:11;;;;;;;34.83;20.52;;;;;;;;;;6247077;28;20070;-68
2023/03/04 05:48:12;;;;;;;33.47;19.33;;;;;;;;;;6244196;28;20061;-67
2023/03/04 05:51:14;;;;;;;31.38;20.15;;;;;;;;;;6245467;28;20329;-67
2023/03/04 05:54:16;;;;;;;37.10;21.10;;;;;;;;;;6246506;28;20046;-68
2023/03/04 05:57:17;;;;;;;39.28;20.35;;;;;;;;;;6247266;28;20071;-68
2023/03/04 06:00:20;;;;;;;35.90;21.25;;;;;;;;;;6243692;28;20861;-68
2023/03/04 06:03:23;;;;;;;35.27;21.00;;;;;;;;;;6245698;28;20195;-67
2023/03/04 06:06:24;;;;;;;38.80;21.60;;;;;;;;;;6243975;28;20571;-67
2023/03/04 06:09:26;;;;;;;40.25;22.58;;;;;;;;;;6245743;28;20060;-67
2023/03/04 06:12:28;;;;;;;39.75;21.77;;;;;;;;;;6243395;28;20372;-67
2023/03/04 06:15:31;;;;;;;34.67;21.15;;;;;;;;;;6243813;28;20069;-67
2023/03/04 06:18:33;;;;;;;34.88;21.13;;;;;;;;;;6241025;28;20076;-67
2023/03/04 06:21:34;;;;;;;35.28;21.23;;;;;;;;;;6247852;28;20239;-68
2023/03/04 06:24:36;;;;;;;33.47;20.13;;;;;;;;;;6243220;28;20489;-68
2023/03/04 06:27:38;;;;;;;33.28;20.08;;;;;;;;;;6239473;28;20045;-67
2023/03/04 06:30:41;;;;;;;38.92;20.77;;;;;;;;;;6244020;28;20276;-68
2023/03/04 06:33:42;;;;;;;35.47;20.67;;;;;;;;;;6244400;28;20088;-67
2023/03/04 06:36:44;;;;;;;32.63;20.60;;;;;;;;;;6247794;28;20115;-68
2023/03/04 06:39:46;;;;;;;37.00;21.73;;;;;;;;;;6247189;28;20123;-67
2023/03/04 06:42:47;;;;;;;35.92;21.15;;;;;;;;;;6252786;28;20049;-67
2023/03/04 06:45:50;;;;;;;36.58;20.88;;;;;;;;;;6251269;28;20119;-71
2023/03/04 06:48:52;;;;;;;35.35;20.60;;;;;;;;;;6247364;28;20308;-68
2023/03/04 06:51:53;;;;;;;36.45;20.25;;;;;;;;;;6243091;28;20333;-68
2023/03/04 06:54:55;;;;;;;36.53;21.30;;;;;;;;;;6251870;28;20391;-67
2023/03/04 06:57:57;;;;;;;34.28;20.17;;;;;;;;;;6251309;28;20171;-67
2023/03/04 07:01:10;;;;;;;33.25;21.50;;;;;;;;;;6248635;28;20317;-67
2023/03/04 07:04:13;;;;;;;35.22;21.17;;;;;;;;;;6248496;28;20100;-67
2023/03/04 07:07:15;;;;;;;38.42;21.65;;;;;;;;;;6247921;28;20065;-68
2023/03/04 07:10:17;;;;;;;35.25;21.42;;;;;;;;;;6251304;28;20053;-67
2023/03/04 07:13:18;;;;;;;36.00;22.35;;;;;;;;;;6250784;28;20053;-67
2023/03/04 07:16:22;;;;;;;34.67;22.15;;;;;;;;;;6250164;28;20061;-67
2023/03/04 07:19:24;;;;;;;;;;;;;;;;;;6244212;28;20095;-67
2023/03/04 07:22:25;;;;;;;37.75;21.25;;;;;;;;;;6246274;28;19929;-67
2023/03/04 07:25:27;;;;;;;35.30;21.52;;;;;;;;;;6253000;28;20049;-67
2023/03/04 07:28:29;;;;;;;32.65;20.35;;;;;;;;;;6248069;28;20057;-67
2023/03/04 07:31:33;;;;;;;34.25;20.98;;;;;;;;;;6247417;28;20053;-68
2023/03/04 07:34:35;;;;;;;36.35;21.67;;;;;;;;;;6246974;28;20155;-67
2023/03/04 07:37:36;;;;;;;38.10;22.10;;;;;;;;;;6247235;28;20269;-68
2023/03/04 07:40:38;;;;;;;36.25;21.38;;;;;;;;;;6249530;28;20051;-67
2023/03/04 07:43:40;;;;;;;30.27;20.10;;;;;;;;;;6249488;28;20392;-67
2023/03/04 07:46:43;;;;;;;33.70;20.75;;;;;;;;;;6247138;28;20054;-67
2023/03/04 07:49:44;;;;;;;33.30;21.15;;;;;;;;;;6243074;28;20096;-68
2023/03/04 07:52:49;;;;;;;36.55;20.90;;;;;;;;;;6250727;28;20132;-69
2023/03/04 07:55:51;;;;;;;34.92;21.45;;;;;;;;;;6252453;28;20060;-67
2023/03/04 07:58:53;;;;;;;31.73;21.13;;;;;;;;;;6248511;28;20052;-68
2023/03/04 08:01:56;;;;;;;32.42;20.60;;;;;;;;;;6245484;28;20352;-66
2023/03/04 08:04:57;;;;;;;34.03;20.98;;;;;;;;;;6244515;28;20360;-66
2023/03/04 08:07:59;;;;;;;34.67;21.50;;;;;;;;;;6244545;28;20322;-67
2023/03/04 08:11:04;;;;;;;33.92;20.42;;;;;;;;;;6247260;28;20053;-69
2023/03/04 08:14:06;;;;;;;29.63;20.52;;;;;;;;;;6246326;28;20055;-69
2023/03/04 08:17:09;;;;;;;36.17;21.20;;;;;;;;;;6249107;28;20348;-68
2023/03/04 08:20:12;;;;;;;31.25;20.70;;;;;;;;;;6246968;28;20295;-69
2023/03/04 08:23:14;;;;;;;31.23;20.40;;;;;;;;;;6247169;28;20088;-69
2023/03/04 08:26:18;;;;;;;34.72;22.17;;;;;;;;;;6246413;28;20061;-68
2023/03/04 08:29:21;;;;;;;32.17;21.20;;;;;;;;;;6248856;28;20158;-68
2023/03/04 08:32:24;;;;;;;32.15;21.30;;;;;;;;;;6244840;28;20760;-68
2023/03/04 08:35:26;;;;;;;29.25;21.25;;;;;;;;;;6245326;28;20738;-69
2023/03/04 08:38:27;;;;;;;30.77;21.13;;;;;;;;;;6250463;28;20051;-68
2023/03/04 08:41:29;;;;;;;32.28;20.98;;;;;;;;;;6246569;28;20054;-68
2023/03/04 08:44:31;;;;;;;32.63;21.45;;;;;;;;;;6244345;28;20241;-68
2023/03/04 08:47:34;;;;;;;30.70;20.80;;;;;;;;;;6245856;28;20053;-68
2023/03/04 08:50:35;;;;;;;31.20;21.83;;;;;;;;;;6250883;28;20123;-68
2023/03/04 08:53:37;;;;;;;30.83;22.33;;;;;;;;;;6247920;28;20060;-68
2023/03/04 08:56:41;;;;;;;32.30;22.42;;;;;;;;;;6250142;28;20042;-68
2023/03/04 08:59:43;;;;;;;;;;;;;;;;;;6247570;28;20065;-69
2023/03/04 09:02:46;;;;;;;36.38;22.15;;;;;;;;;;6244184;28;19929;-69
2023/03/04 09:05:48;;;;;;;30.27;22.60;;;;;;;;;;6241130;28;20060;-68
2023/03/04 09:08:49;;;;;;;33.28;22.73;;;;;;;;;;6244939;28;20264;-69
2023/03/04 09:11:51;;;;;;;32.75;22.67;;;;;;;;;;6247403;28;20095;-68
2023/03/04 09:14:53;;;;;;;33.85;23.20;;;;;;;;;;6242998;28;20045;-68
2023/03/04 09:17:56;;;;;;;30.25;22.08;;;;;;;;;;6246634;28;20057;-68
2023/03/04 09:20:57;;;;;;;31.00;23.47;;;;;;;;;;6248589;28;20053;-68
2023/03/04 09:23:59;;;;;;;38.00;24.60;;;;;;;;;;6247287;28;20322;-68
2023/03/04 09:27:00;;;;;;;31.80;23.63;;;;;;;;;;6241558;28;20053;-68
2023/03/04 09:30:02;;;;;;;34.63;23.35;;;;;;;;;;6249242;28;20623;-68
2023/03/04 09:33:05;;;;;;;33.10;24.30;;;;;;;;;;6246597;28;20065;-68
2023/03/04 09:36:08;;;;;;;34.40;24.02;;;;;;;;;;6246216;28;20233;-69
2023/03/04 09:39:10;;;;;;;35.38;24.67;;;;;;;;;;6243754;28;20049;-68
2023/03/04 09:42:18;;;;;;;36.72;25.02;;;;;;;;;;6246654;28;20055;-68
2023/03/04 09:45:21;;;;;;;34.30;23.60;;;;;;;;;;6244867;28;20144;-68
2023/03/04 09:48:27;;;;;;;31.55;24.83;;;;;;;;;;6241316;28;20057;-68
2023/03/04 09:51:42;;;;;;;32.63;22.85;;;;;;;;;;6246362;28;20115;-68
2023/03/04 09:54:55;;;;;;;30.48;23.63;;;;;;;;;;6245487;28;20050;-69
2023/03/04 09:58:00;;;;;;;35.00;23.98;;;;;;;;;;6241227;28;20060;-68
2023/03/04 10:01:04;;;;;;;31.80;25.58;;;;;;;;;;6246170;28;20285;-68
2023/03/04 10:04:13;;;;;;;34.13;24.58;;;;;;;;;;6249635;28;20093;-69
2023/03/04 10:07:18;;;;;;;32.05;24.80;;;;;;;;;;6245235;28;20057;-68
2023/03/04 10:10:23;;;;;;;34.15;24.67;;;;;;;;;;6251164;28;20045;-68
2023/03/04 10:13:31;;;;;;;40.45;25.60;;;;;;;;;;6245975;28;20341;-68
2023/03/04 10:16:38;;;;;;;32.45;24.20;;;;;;;;;;6246046;28;20079;-68
2023/03/04 10:19:59;;;;;;;33.78;25.85;;;;;;;;;;6245780;28;20289;-69
2023/03/04 10:23:09;;;;;;;30.35;24.88;;;;;;;;;;6245200;28;20938;-71
2023/03/04 10:26:13;;;;;;;32.70;24.63;;;;;;;;;;6245394;28;20041;-71
2023/03/04 10:29:16;;;;;;;32.65;25.08;;;;;;;;;;6244037;28;20057;-71
2023/03/04 10:32:19;;;;;;;33.53;26.27;;;;;;;;;;6245834;28;20050;-68
2023/03/04 10:35:23;;;;;;;36.85;24.90;;;;;;;;;;6243820;28;20061;-68
2023/03/04 10:38:25;;;;;;;33.72;25.02;;;;;;;;;;6244330;28;20326;-69
2023/03/04 10:41:28;;;;;;;33.50;26.38;;;;;;;;;;6241991;28;21070;-69
2023/03/04 10:44:31;;;;;;;30.58;25.73;;;;;;;;;;6247463;28;20120;-69
2023/03/04 10:47:34;;;;;;;35.77;26.17;;;;;;;;;;6242689;28;20058;-69
2023/03/04 10:50:37;;;;;;;33.65;26.17;;;;;;;;;;6246094;28;20245;-70
2023/03/04 10:53:41;;;;;;;33.75;27.25;;;;;;;;;;6245092;28;20045;-69
2023/03/04 10:56:45;;;;;;;34.92;26.67;;;;;;;;;;6241893;28;20041;-69
2023/03/04 10:59:50;;;;;;;36.88;27.23;;;;;;;;;;6248199;28;20057;-68
2023/03/04 11:02:52;;;;;;;39.00;26.88;;;;;;;;;;6242522;28;20053;-69
2023/03/04 11:06:04;;;;;;;35.80;27.02;;;;;;;;;;6244014;28;20049;-69
2023/03/04 11:09:06;;;;;;;34.03;26.00;;;;;;;;;;6245521;28;20134;-69
2023/03/04 11:12:11;;;;;;;35.90;27.70;;;;;;;;;;6243747;28;20463;-69
2023/03/04 11:15:23;;;;;;;34.15;27.20;;;;;;;;;;6243698;28;20057;-68
2023/03/04 11:18:30;;;;;;;34.90;26.60;;;;;;;;;;6245630;28;20041;-68
2023/03/04 11:21:37;;;;;;;40.03;27.88;;;;;;;;;;6246867;28;20089;-69
2023/03/04 11:24:39;;;;;;;43.72;27.02;;;;;;;;;;6246525;28;20236;-68
2023/03/04 11:27:44;;;;;;;36.90;26.88;;;;;;;;;;6253541;28;20045;-69
2023/03/04 11:30:48;;;;;;;38.85;26.58;;;;;;;;;;6250690;28;20400;-69
2023/03/04 11:33:54;;;;;;;38.47;25.80;;;;;;;;;;6248022;28;20093;-68
2023/03/04 11:37:02;;;;;;;34.83;25.75;;;;;;;;;;6248150;28;20379;-68
2023/03/04 11:40:06;;;;;;;35.00;25.55;;;;;;;;;;6246157;28;20329;-69
2023/03/04 11:43:13;;;;;;;37.67;26.23;;;;;;;;;;6246431;28;20117;-69
2023/03/04 11:46:34;;;;;;;35.78;26.23;;;;;;;;;;6247071;28;20064;-68
2023/03/04 11:49:55;;;;;;;34.17;25.10;;;;;;;;;;6249305;28;20130;-69
2023/03/04 11:53:14;;;;;;;36.17;26.83;;;;;;;;;;6248677;28;20114;-73
2023/03/04 11:56:30;;;;;;;33.50;24.08;;;;;;;;;;6248227;28;20079;-72
2023/03/04 11:59:41;;;;;;;33.92;23.65;;;;;;;;;;6245581;28;20054;-72
2023/03/04 12:02:48;;;;;;;35.00;26.45;;;;;;;;;;6247685;28;20053;-72
2023/03/04 12:05:55;;;;;;;35.92;25.80;;;;;;;;;;6245909;28;20318;-68
2023/03/04 12:09:08;;;;;;;37.58;25.15;;;;;;;;;;6249644;28;20376;-71
2023/03/04 12:12:32;;;;;;;36.22;25.23;;;;;;;;;;6245265;28;20113;-71
2023/03/04 12:15:43;;;;;;;33.90;24.85;;;;;;;;;;6249291;28;20053;-69
2023/03/04 12:18:56;;;;;;;32.13;23.63;;;;;;;;;;6245524;28;20046;-72
2023/03/04 12:22:18;;;;;;;36.50;24.90;;;;;;;;;;6243736;28;20111;-71
2023/03/04 12:25:37;;;;;;;33.25;24.60;;;;;;;;;;6244866;28;20049;-69
2023/03/04 12:28:51;;;;;;;34.72;24.42;;;;;;;;;;6246862;28;20046;-69
2023/03/04 12:31:56;;;;;;;35.08;25.10;;;;;;;;;;6241432;28;20107;-71
2023/03/04 12:35:08;;;;;;;32.90;24.67;;;;;;;;;;6253380;28;20057;-71
2023/03/04 12:38:22;;;;;;;30.60;21.58;;;;;;;;;;6251420;28;20380;-70
2023/03/04 12:41:33;;;;;;;26.98;20.65;;;;;;;;;;6251382;28;20255;-69
2023/03/04 12:44:38;;;;;;;28.73;20.33;;;;;;;;;;6253074;28;20053;-69
2023/03/04 12:47:47;;;;;;;27.60;20.38;;;;;;;;;;6251044;28;20053;-70
2023/03/04 12:50:54;;;;;;;30.45;21.13;;;;;;;;;;6250384;28;20103;-71
2023/03/04 12:54:04;;;;;;;31.02;20.33;;;;;;;;;;6251471;28;20081;-70
2023/03/04 12:57:11;;;;;;;31.67;21.00;;;;;;;;;;6251946;28;20260;-70
2023/03/04 13:00:22;;;;;;;25.17;19.02;;;;;;;;;;6248193;28;20099;-69
2023/03/04 13:03:28;;;;;;;25.45;19.63;;;;;;;;;;6253688;28;20096;-69
2023/03/04 13:06:40;;;;;;;27.70;19.05;;;;;;;;;;6252852;28;20091;-69
2023/03/04 13:09:47;;;;;;;26.27;17.73;;;;;;;;;;6252067;28;20129;-68
2023/03/04 13:12:52;;;;;;;27.00;19.38;;;;;;;;;;6249440;28;20120;-68
2023/03/04 13:16:02;;;;;;;23.70;18.33;;;;;;;;;;6249567;28;20054;-70
2023/03/04 13:19:42;;;;;;;26.73;19.05;;;;;;;;;;6249476;28;20153;-70
2023/03/04 13:22:51;;;;;;;26.27;20.15;;;;;;;;;;6248002;28;20349;-70
2023/03/04 13:26:17;;;;;;;21.65;17.38;;;;;;;;;;6251398;28;20304;-70
2023/03/04 13:29:33;;;;;;;23.33;17.73;;;;;;;;;;6244954;28;20083;-69
2023/03/04 13:32:37;;;;;;;21.85;17.67;;;;;;;;;;6249507;28;20056;-70
2023/03/04 13:35:48;;;;;;;24.42;18.45;;;;;;;;;;6254184;28;20084;-71
2023/03/04 13:38:59;;;;;;;23.63;17.13;;;;;;;;;;6251313;28;20191;-70
2023/03/04 13:42:01;;;;;;;23.58;17.17;;;;;;;;;;6251881;28;20299;-69
2023/03/04 13:45:05;;;;;;;27.00;18.38;;;;;;;;;;6249899;28;20058;-70
2023/03/04 13:48:24;;;;;;;27.25;18.27;;;;;;;;;;6247678;28;20045;-70
2023/03/04 13:51:27;;;;;;;25.42;17.05;;;;;;;;;;6251844;28;20049;-70
2023/03/04 13:54:30;;;;;;;24.85;18.00;;;;;;;;;;6250240;28;20099;-69
2023/03/04 13:57:32;;;;;;;21.92;16.27;;;;;;;;;;6251489;28;20284;-69
2023/03/04 14:00:36;;;;;;;25.67;17.38;;;;;;;;;;6251403;28;20071;-70
2023/03/04 14:03:37;;;;;;;19.95;16.30;;;;;;;;;;6248705;28;20140;-70
2023/03/04 14:06:42;;;;;;;22.95;17.40;;;;;;;;;;6248614;28;20061;-69
2023/03/04 14:09:54;;;;;;;20.42;15.35;;;;;;;;;;6248946;28;20346;-70
2023/03/04 14:12:56;;;;;;;24.50;17.77;;;;;;;;;;6249446;28;20073;-70
2023/03/04 14:15:59;;;;;;;27.80;17.50;;;;;;;;;;6245042;28;20407;-70
2023/03/04 14:19:03;;;;;;;23.77;16.25;;;;;;;;;;6250123;28;20053;-70
2023/03/04 14:22:20;;;;;;;23.65;16.80;;;;;;;;;;6249498;28;20096;-70
2023/03/04 14:25:24;;;;;;;22.10;16.85;;;;;;;;;;6251537;28;20387;-69
2023/03/04 14:28:25;;;;;;;22.40;16.63;;;;;;;;;;6250774;28;20037;-70
2023/03/04 14:31:30;;;;;;;24.42;14.90;;;;;;;;;;6245499;28;20057;-69
2023/03/04 14:34:35;;;;;;;21.05;16.20;;;;;;;;;;6242674;28;20237;-79
2023/03/04 14:37:43;;;;;;;18.33;13.02;;;;;;;;;;6242666;28;20053;-80
2023/03/04 14:40:47;;;;;;;17.90;14.02;;;;;;;;;;6244573;28;20117;-79
2023/03/04 14:43:53;;;;;;;17.00;13.45;;;;;;;;;;6240082;28;20064;-85
2023/03/04 14:47:00;;;;;;;18.73;13.00;;;;;;;;;;6246505;28;20084;-84
2023/03/04 14:50:04;;;;;;;15.80;11.75;;;;;;;;;;6243572;28;20109;-83
2023/03/04 14:53:17;;;;;;;18.23;15.75;;;;;;;;;;6245039;28;20056;-75
2023/03/04 14:56:27;;;;;;;19.55;13.18;;;;;;;;;;6246233;28;20099;-75
2023/03/04 14:59:31;;;;;;;15.32;12.05;;;;;;;;;;6248972;28;20345;-81
2023/03/04 15:02:38;;;;;;;12.25;9.95;;;;;;;;;;6247801;28;20050;-83
2023/03/04 15:05:40;;;;;;;18.25;12.32;;;;;;;;;;6249504;28;20318;-84
2023/03/04 15:08:42;;;;;;;17.30;13.18;;;;;;;;;;6248064;28;21211;-78
2023/03/04 15:11:48;;;;;;;14.63;10.73;;;;;;;;;;6248913;28;20061;-83
2023/03/04 15:14:51;;;;;;;14.18;10.63;;;;;;;;;;6250071;28;20057;-84
2023/03/04 15:17:59;;;;;;;14.60;11.73;;;;;;;;;;6249104;28;20049;-83
2023/03/04 15:21:06;;;;;;;13.82;10.30;;;;;;;;;;6247351;28;20210;-82
2023/03/04 15:24:10;;;;;;;11.60;9.07;;;;;;;;;;6250737;28;20057;-81
2023/03/04 15:27:12;;;;;;;13.57;10.48;;;;;;;;;;6247194;28;20053;-79
2023/03/04 15:30:16;;;;;;;14.87;12.30;;;;;;;;;;6246844;28;20057;-79
2023/03/04 15:33:19;;;;;;;13.52;10.88;;;;;;;;;;6248159;28;20104;-78
2023/03/04 15:36:22;;;;;;;17.83;13.80;;;;;;;;;;6247137;28;20103;-80
2023/03/04 15:39:26;;;;;;;19.20;12.57;;;;;;;;;;6242751;28;20071;-78
2023/03/04 15:42:28;;;;;;;16.73;11.38;;;;;;;;;;6247559;28;20092;-80
2023/03/04 15:45:31;;;;;;;14.20;10.48;;;;;;;;;;6249092;28;20053;-80
2023/03/04 15:48:34;;;;;;;12.75;8.48;;;;;;;;;;6251614;28;20180;-81
2023/03/04 15:51:35;;;;;;;;;;;;;;;;;;6247297;28;20080;-79
2023/03/04 15:54:37;;;;;;;15.07;12.50;;;;;;;;;;6249941;28;19924;-78
2023/03/04 15:57:39;;;;;;;16.85;14.02;;;;;;;;;;6248942;28;20049;-80
2023/03/04 16:00:41;;;;;;;17.15;13.00;;;;;;;;;;6248041;28;20097;-76
2023/03/04 16:03:44;;;;;;;15.63;10.07;;;;;;;;;;6248335;28;20205;-80
2023/03/04 16:06:47;;;;;;;13.98;9.70;;;;;;;;;;6246110;28;20140;-76
2023/03/04 16:09:50;;;;;;;12.98;9.63;;;;;;;;;;6250442;28;20076;-78
2023/03/04 16:12:53;;;;;;;19.50;13.43;;;;;;;;;;6246295;28;20057;-79
2023/03/04 16:15:54;;;;;;;17.30;11.63;;;;;;;;;;6249592;28;20057;-80
2023/03/04 16:18:58;;;;;;;20.23;14.18;;;;;;;;;;6245821;28;20049;-81
2023/03/04 16:21:59;;;;;;;;;;;;;;;;;;6247085;28;20061;-80
2023/03/04 16:25:01;;;;;;;16.88;12.90;;;;;;;;;;6248289;28;19925;-86
2023/03/04 16:28:03;;;;;;;20.80;14.13;;;;;;;;;;6248364;28;20228;-82
2023/03/04 16:31:05;;;;;;;18.25;13.23;;;;;;;;;;6247138;28;20099;-77
2023/03/04 16:34:08;;;;;;;20.17;12.57;;;;;;;;;;6247487;28;20085;-79
2023/03/04 16:37:14;;;;;;;17.98;12.68;;;;;;;;;;6247031;28;20060;-75
2023/03/04 16:40:17;;;;;;;21.73;12.18;;;;;;;;;;6245728;28;20333;-76
2023/03/04 16:43:19;;;;;;;17.23;12.48;;;;;;;;;;6244451;28;20321;-79
2023/03/04 16:46:21;;;;;;;20.13;12.32;;;;;;;;;;6244950;28;20053;-79
2023/03/04 16:49:24;;;;;;;19.42;13.27;;;;;;;;;;6240268;28;20049;-77
2023/03/04 16:52:27;;;;;;;19.88;13.77;;;;;;;;;;6247117;28;20198;-77
2023/03/04 16:55:30;;;;;;;22.58;13.45;;;;;;;;;;6246872;28;20061;-79
2023/03/04 16:58:32;;;;;;;18.50;13.40;;;;;;;;;;6250168;28;20053;-77
2023/03/04 17:01:35;;;;;;;19.77;13.45;;;;;;;;;;6250956;28;20057;-80
2023/03/04 17:04:38;;;;;;;19.38;13.27;;;;;;;;;;6252623;28;20083;-79
2023/03/04 17:07:40;;;;;;;20.58;13.45;;;;;;;;;;6250264;28;20053;-79
2023/03/04 17:10:42;;;;;;;19.65;13.07;;;;;;;;;;6250977;28;20108;-78
2023/03/04 17:13:43;;;;;;;22.42;14.07;;;;;;;;;;6247666;28;20058;-79
2023/03/04 17:16:49;;;;;;;20.55;13.05;;;;;;;;;;6245791;28;20240;-87
2023/03/04 17:19:52;;;;;;;71.80;41.15;;;;;;;;;;6241883;28;20049;-84
2023/03/04 17:22:54;;;;;;;27.37;17.77;;;;;;;;;;6249822;28;20065;-82
2023/03/04 17:25:56;;;;;;;46.83;25.92;;;;;;;;;;6248992;28;20046;-76
2023/03/04 17:28:58;;;;;;;25.73;16.17;;;;;;;;;;6246492;28;20562;-78
2023/03/04 17:31:59;;;;;;;20.13;12.60;;;;;;;;;;6244917;28;20086;-77
2023/03/04 17:35:04;;;;;;;20.90;13.13;;;;;;;;;;6248226;28;20048;-79
2023/03/04 17:38:06;;;;;;;20.67;13.07;;;;;;;;;;6246557;28;20112;-78
2023/03/04 17:41:12;;;;;;;21.17;14.40;;;;;;;;;;6245015;28;20295;-78
2023/03/04 17:44:14;;;;;;;19.75;11.07;;;;;;;;;;6248899;28;20057;-78
2023/03/04 17:47:16;;;;;;;18.98;12.35;;;;;;;;;;6245383;28;20120;-75
2023/03/04 17:50:19;;;;;;;19.52;12.15;;;;;;;;;;6245773;28;20051;-79
2023/03/04 17:53:21;;;;;;;17.90;11.10;;;;;;;;;;6246762;28;20802;-78